sensor_id;sensor_type;location;lat;lon;timestamp;pressure;altitude;pressure_sealevel;temperature;humidity
51603;BME280;37954;51.980;5.850;2023-04-01T00:01:31;98732.50;;;10.74;99.41
51603;BME280;37954;51.980;5.850;2023-04-01T00:05:43;98739.22;;;10.71;99.56
51603;BME280;37954;51.980;5.850;2023-04-01T00:09:54;98730.66;;;10.69;99.76
51603;BME280;37954;51.980;5.850;2023-04-01T00:14:07;98731.47;;;10.65;99.72
51603;BME280;37954;51.980;5.850;2023-04-01T00:18:18;98753.69;;;10.75;99.49
51603;BME280;37954;51.980;5.850;2023-04-01T00:22:30;98733.06;;;10.66;99.50
51603;BME280;37954;51.980;5.850;2023-04-01T00:26:42;98732.81;;;10.62;99.76
51603;BME280;37954;51.980;5.850;2023-04-01T00:30:55;98733.88;;;10.61;99.63
51603;BME280;37954;51.980;5.850;2023-04-01T00:35:07;98746.22;;;10.72;99.80
51603;BME280;37954;51.980;5.850;2023-04-01T00:39:20;98745.41;;;10.72;99.95
51603;BME280;37954;51.980;5.850;2023-04-01T00:43:32;98744.59;;;10.71;100.00
51603;BME280;37954;51.980;5.850;2023-04-01T00:47:44;98742.97;;;10.75;100.00
51603;BME280;37954;51.980;5.850;2023-04-01T00:51:57;98758.53;;;10.78;99.88
51603;BME280;37954;51.980;5.850;2023-04-01T00:56:17;98753.41;;;10.82;99.76
51603;BME280;37954;51.980;5.850;2023-04-01T01:00:31;98754.75;;;10.85;100.00
51603;BME280;37954;51.980;5.850;2023-04-01T01:04:43;98749.94;;;10.81;99.82
51603;BME280;37954;51.980;5.850;2023-04-01T01:14:15;98761.22;;;10.78;99.85
51603;BME280;37954;51.980;5.850;2023-04-01T01:27:21;98771.41;;;10.87;100.00
51603;BME280;37954;51.980;5.850;2023-04-01T01:31:37;98776.50;;;10.88;100.00
51603;BME280;37954;51.980;5.850;2023-04-01T01:35:57;98770.88;;;10.85;100.00
51603;BME280;37954;51.980;5.850;2023-04-01T01:40:12;98788.59;;;10.91;100.00
51603;BME280;37954;51.980;5.850;2023-04-01T01:44:28;98784.56;;;10.88;100.00
51603;BME280;37954;51.980;5.850;2023-04-01T01:48:42;98780.28;;;10.87;100.00
51603;BME280;37954;51.980;5.850;2023-04-01T01:53:06;98796.88;;;10.94;100.00
51603;BME280;37954;51.980;5.850;2023-04-01T01:57:28;98789.94;;;10.83;99.87
51603;BME280;37954;51.980;5.850;2023-04-01T02:01:47;98790.75;;;10.78;99.56
51603;BME280;37954;51.980;5.850;2023-04-01T02:06:01;98795.84;;;10.75;99.77
51603;BME280;37954;51.980;5.850;2023-04-01T02:10:14;98803.41;;;10.73;99.48
51603;BME280;37954;51.980;5.850;2023-04-01T02:14:30;98806.59;;;10.75;99.39
51603;BME280;37954;51.980;5.850;2023-04-01T02:18:49;98800.97;;;10.76;99.46
51603;BME280;37954;51.980;5.850;2023-04-01T02:23:03;98797.22;;;10.67;99.32
51603;BME280;37954;51.980;5.850;2023-04-01T02:27:16;98805.81;;;10.69;99.49
51603;BME280;37954;51.980;5.850;2023-04-01T02:31:28;98803.13;;;10.64;99.33
51603;BME280;37954;51.980;5.850;2023-04-01T02:35:40;98791.59;;;10.59;99.63
51603;BME280;37954;51.980;5.850;2023-04-01T02:39:51;98807.97;;;10.67;99.65
51603;BME280;37954;51.980;5.850;2023-04-01T02:44:03;98812.00;;;10.60;99.61
51603;BME280;37954;51.980;5.850;2023-04-01T02:48:15;98810.94;;;10.56;99.97
51603;BME280;37954;51.980;5.850;2023-04-01T02:52:28;98808.50;;;10.59;99.45
51603;BME280;37954;51.980;5.850;2023-04-01T02:56:43;98807.97;;;10.57;99.74
51603;BME280;37954;51.980;5.850;2023-04-01T03:00:55;98810.66;;;10.57;99.99
51603;BME280;37954;51.980;5.850;2023-04-01T03:05:07;98803.97;;;10.50;99.99
51603;BME280;37954;51.980;5.850;2023-04-01T03:09:18;98827.56;;;10.58;100.00
51603;BME280;37954;51.980;5.850;2023-04-01T03:13:30;98794.03;;;10.40;100.00
51603;BME280;37954;51.980;5.850;2023-04-01T03:17:43;98831.88;;;10.59;100.00
51603;BME280;37954;51.980;5.850;2023-04-01T03:21:55;98821.38;;;10.57;100.00
51603;BME280;37954;51.980;5.850;2023-04-01T03:26:07;98816.06;;;10.52;100.00
51603;BME280;37954;51.980;5.850;2023-04-01T03:30:19;98834.53;;;10.59;100.00
51603;BME280;37954;51.980;5.850;2023-04-01T03:34:34;98836.19;;;10.55;100.00
51603;BME280;37954;51.980;5.850;2023-04-01T03:38:46;98843.97;;;10.56;100.00
51603;BME280;37954;51.980;5.850;2023-04-01T03:43:03;98841.56;;;10.55;100.00
51603;BME280;37954;51.980;5.850;2023-04-01T03:47:21;98837.25;;;10.49;99.89
51603;BME280;37954;51.980;5.850;2023-04-01T03:51:33;98841.81;;;10.48;99.57
51603;BME280;37954;51.980;5.850;2023-04-01T03:55:44;98854.97;;;10.55;99.52
51603;BME280;37954;51.980;5.850;2023-04-01T03:59:56;98844.75;;;10.46;99.68
51603;BME280;37954;51.980;5.850;2023-04-01T04:04:11;98843.44;;;10.54;99.47
51603;BME280;37954;51.980;5.850;2023-04-01T04:08:24;98847.19;;;10.48;99.73
51603;BME280;37954;51.980;5.850;2023-04-01T04:12:35;98850.41;;;10.45;99.55
51603;BME280;37954;51.980;5.850;2023-04-01T04:16:47;98856.59;;;10.51;99.77
51603;BME280;37954;51.980;5.850;2023-04-01T04:21:00;98845.59;;;10.37;99.89
51603;BME280;37954;51.980;5.850;2023-04-01T04:25:11;98847.19;;;10.38;99.38
51603;BME280;37954;51.980;5.850;2023-04-01T04:29:23;98845.03;;;10.35;99.81
51603;BME280;37954;51.980;5.850;2023-04-01T04:33:35;98869.19;;;10.45;99.58
51603;BME280;37954;51.980;5.850;2023-04-01T04:37:48;98865.16;;;10.42;99.84
51603;BME280;37954;51.980;5.850;2023-04-01T04:42:07;98854.19;;;10.39;99.68
51603;BME280;37954;51.980;5.850;2023-04-01T04:46:19;98879.13;;;10.50;99.93
51603;BME280;37954;51.980;5.850;2023-04-01T04:50:35;98882.63;;;10.50;99.85
51603;BME280;37954;51.980;5.850;2023-04-01T04:54:46;98880.47;;;10.47;99.38
51603;BME280;37954;51.980;5.850;2023-04-01T04:58:59;98895.75;;;10.46;99.41
51603;BME280;37954;51.980;5.850;2023-04-01T05:03:23;98890.66;;;10.45;99.84
51603;BME280;37954;51.980;5.850;2023-04-01T05:07:35;98889.59;;;10.46;99.80
51603;BME280;37954;51.980;5.850;2023-04-01T05:11:46;98885.81;;;10.42;99.78
51603;BME280;37954;51.980;5.850;2023-04-01T05:15:58;98901.41;;;10.45;99.87
51603;BME280;37954;51.980;5.850;2023-04-01T05:20:11;98896.03;;;10.45;99.59
51603;BME280;37954;51.980;5.850;2023-04-01T05:24:23;98910.53;;;10.49;100.00
51603;BME280;37954;51.980;5.850;2023-04-01T05:28:36;98908.09;;;10.48;100.00
51603;BME280;37954;51.980;5.850;2023-04-01T05:32:48;98930.66;;;10.57;99.97
51603;BME280;37954;51.980;5.850;2023-04-01T05:37:01;98929.06;;;10.56;100.00
51603;BME280;37954;51.980;5.850;2023-04-01T05:41:14;98915.34;;;10.47;100.00
51603;BME280;37954;51.980;5.850;2023-04-01T05:45:29;98938.19;;;10.60;100.00
51603;BME280;37954;51.980;5.850;2023-04-01T05:50:04;98949.72;;;10.60;100.00
51603;BME280;37954;51.980;5.850;2023-04-01T05:54:17;98953.75;;;10.63;100.00
51603;BME280;37954;51.980;5.850;2023-04-01T05:58:29;98960.19;;;10.62;100.00
51603;BME280;37954;51.980;5.850;2023-04-01T06:02:42;98964.75;;;10.61;100.00
51603;BME280;37954;51.980;5.850;2023-04-01T06:06:54;98977.63;;;10.59;100.00
51603;BME280;37954;51.980;5.850;2023-04-01T06:25:51;99010.97;;;10.84;100.00
51603;BME280;37954;51.980;5.850;2023-04-01T06:39:37;99026.56;;;10.97;100.00
51603;BME280;37954;51.980;5.850;2023-04-01T06:58:26;99045.38;;;11.12;100.00
51603;BME280;37954;51.980;5.850;2023-04-01T07:02:43;99062.03;;;11.19;100.00
51603;BME280;37954;51.980;5.850;2023-04-01T07:11:50;99060.69;;;11.27;100.00
51603;BME280;37954;51.980;5.850;2023-04-01T07:16:46;99064.19;;;11.32;100.00
51603;BME280;37954;51.980;5.850;2023-04-01T07:21:00;99080.06;;;11.39;100.00
51603;BME280;37954;51.980;5.850;2023-04-01T07:25:16;99087.84;;;11.45;100.00
51603;BME280;37954;51.980;5.850;2023-04-01T07:29:36;99087.84;;;11.45;100.00
51603;BME280;37954;51.980;5.850;2023-04-01T07:38:40;99105.06;;;11.49;100.00
51603;BME280;37954;51.980;5.850;2023-04-01T07:43:22;99104.78;;;11.51;100.00
51603;BME280;37954;51.980;5.850;2023-04-01T07:57:14;99132.75;;;11.55;100.00
51603;BME280;37954;51.980;5.850;2023-04-01T08:01:42;99130.31;;;11.64;100.00
51603;BME280;37954;51.980;5.850;2023-04-01T08:06:16;99135.44;;;11.75;100.00
51603;BME280;37954;51.980;5.850;2023-04-01T08:24:42;99163.19;;;11.76;99.58
51603;BME280;37954;51.980;5.850;2023-04-01T08:29:21;99181.47;;;11.89;99.93
51603;BME280;37954;51.980;5.850;2023-04-01T08:33:35;99191.41;;;11.94;99.73
51603;BME280;37954;51.980;5.850;2023-04-01T08:37:57;99190.63;;;11.93;99.54
51603;BME280;37954;51.980;5.850;2023-04-01T08:42:41;99204.03;;;11.98;99.63
51603;BME280;37954;51.980;5.850;2023-04-01T08:52:12;99212.91;;;12.19;99.03
51603;BME280;37954;51.980;5.850;2023-04-01T09:00:57;99217.47;;;12.18;98.80
51603;BME280;37954;51.980;5.850;2023-04-01T09:05:44;99230.66;;;12.30;98.51
51603;BME280;37954;51.980;5.850;2023-04-01T09:15:30;99243.81;;;12.52;98.45
51603;BME280;37954;51.980;5.850;2023-04-01T09:24:26;99257.81;;;12.49;98.19
51603;BME280;37954;51.980;5.850;2023-04-01T09:29:26;99267.78;;;12.48;97.53
51603;BME280;37954;51.980;5.850;2023-04-01T09:34:07;99276.94;;;12.47;97.48
51603;BME280;37954;51.980;5.850;2023-04-01T09:43:16;99285.03;;;12.52;97.12
51603;BME280;37954;51.980;5.850;2023-04-01T09:48:05;99289.34;;;12.38;96.47
51603;BME280;37954;51.980;5.850;2023-04-01T09:52:54;99290.69;;;12.15;96.51
51603;BME280;37954;51.980;5.850;2023-04-01T10:26:01;99325.44;;;12.27;97.04
51603;BME280;37954;51.980;5.850;2023-04-01T10:39:58;99342.94;;;12.40;96.94
51603;BME280;37954;51.980;5.850;2023-04-01T10:49:41;99343.19;;;12.79;97.47
51603;BME280;37954;51.980;5.850;2023-04-01T11:04:58;99354.44;;;13.21;96.65
51603;BME280;37954;51.980;5.850;2023-04-01T11:14:52;99354.91;;;13.34;95.86
51603;BME280;37954;51.980;5.850;2023-04-01T11:28:34;99370.00;;;13.45;94.50
51603;BME280;37954;51.980;5.850;2023-04-01T11:47:28;99394.34;;;13.30;93.71
51603;BME280;37954;51.980;5.850;2023-04-01T12:01:26;99431.81;;;13.06;93.68
51603;BME280;37954;51.980;5.850;2023-04-01T12:05:54;99426.16;;;12.92;93.68
51603;BME280;37954;51.980;5.850;2023-04-01T12:10:17;99440.16;;;12.84;93.77
51603;BME280;37954;51.980;5.850;2023-04-01T12:14:36;99446.13;;;12.81;93.87
51603;BME280;37954;51.980;5.850;2023-04-01T12:18:59;99453.38;;;12.75;94.08
51603;BME280;37954;51.980;5.850;2023-04-01T12:23:20;99446.38;;;12.59;94.32
51603;BME280;37954;51.980;5.850;2023-04-01T12:32:41;99472.22;;;12.50;94.69
51603;BME280;37954;51.980;5.850;2023-04-01T12:37:28;99473.84;;;12.46;94.68
51603;BME280;37954;51.980;5.850;2023-04-01T12:46:16;99468.13;;;12.32;95.15
51603;BME280;37954;51.980;5.850;2023-04-01T13:05:10;99506.19;;;12.61;96.37
51603;BME280;37954;51.980;5.850;2023-04-01T13:09:46;99514.81;;;12.73;96.23
51603;BME280;37954;51.980;5.850;2023-04-01T13:14:48;99528.03;;;12.90;96.62
51603;BME280;37954;51.980;5.850;2023-04-01T13:19:25;99531.81;;;12.99;96.53
51603;BME280;37954;51.980;5.850;2023-04-01T13:27:56;99537.25;;;13.35;95.84
51603;BME280;37954;51.980;5.850;2023-04-01T13:32:47;99550.75;;;13.50;95.90
51603;BME280;37954;51.980;5.850;2023-04-01T13:37:20;99558.56;;;13.46;94.92
51603;BME280;37954;51.980;5.850;2023-04-01T14:17:24;99606.81;;;13.38;94.10
51603;BME280;37954;51.980;5.850;2023-04-01T14:22:02;99620.06;;;13.49;94.31
51603;BME280;37954;51.980;5.850;2023-04-01T14:40:33;99635.69;;;13.57;94.15
51603;BME280;37954;51.980;5.850;2023-04-01T14:49:36;99646.22;;;13.69;94.04
51603;BME280;37954;51.980;5.850;2023-04-01T14:54:16;99652.69;;;13.73;94.10
51603;BME280;37954;51.980;5.850;2023-04-01T14:58:44;99664.59;;;13.77;93.48
51603;BME280;37954;51.980;5.850;2023-04-01T15:02:59;99652.69;;;13.68;93.64
51603;BME280;37954;51.980;5.850;2023-04-01T15:07:31;99669.69;;;13.74;93.47
51603;BME280;37954;51.980;5.850;2023-04-01T15:25:50;99711.00;;;13.59;92.82
51603;BME280;37954;51.980;5.850;2023-04-01T15:30:17;99708.56;;;13.63;92.73
51603;BME280;37954;51.980;5.850;2023-04-01T15:34:41;99730.69;;;13.65;92.71
51603;BME280;37954;51.980;5.850;2023-04-01T15:43:40;99752.41;;;13.17;91.02
51603;BME280;37954;51.980;5.850;2023-04-01T15:48:06;99738.81;;;12.92;91.28
51603;BME280;37954;51.980;5.850;2023-04-01T15:57:13;99760.88;;;12.84;91.92
51603;BME280;37954;51.980;5.850;2023-04-01T16:01:38;99781.13;;;12.92;92.05
51603;BME280;37954;51.980;5.850;2023-04-01T16:06:01;99782.22;;;12.90;92.26
51603;BME280;37954;51.980;5.850;2023-04-01T16:15:32;99783.66;;;12.61;91.74
51603;BME280;37954;51.980;5.850;2023-04-01T16:20:00;99809.56;;;12.67;91.90
51603;BME280;37954;51.980;5.850;2023-04-01T16:37:33;99837.56;;;12.61;91.86
51603;BME280;37954;51.980;5.850;2023-04-01T16:41:54;99848.78;;;12.53;91.60
51603;BME280;37954;51.980;5.850;2023-04-01T16:51:18;99858.50;;;12.22;91.38
51603;BME280;37954;51.980;5.850;2023-04-01T16:55:41;99882.78;;;12.27;91.38
51603;BME280;37954;51.980;5.850;2023-04-01T17:00:36;99882.66;;;12.12;91.34
51603;BME280;37954;51.980;5.850;2023-04-01T17:05:04;99905.44;;;12.04;91.51
51603;BME280;37954;51.980;5.850;2023-04-01T17:09:44;99903.66;;;11.88;91.36
51603;BME280;37954;51.980;5.850;2023-04-01T17:23:36;99923.91;;;11.52;91.95
51603;BME280;37954;51.980;5.850;2023-04-01T17:28:02;99966.25;;;11.62;92.02
51603;BME280;37954;51.980;5.850;2023-04-01T17:32:40;99979.66;;;11.57;92.03
51603;BME280;37954;51.980;5.850;2023-04-01T17:41:53;99997.34;;;11.36;92.02
51603;BME280;37954;51.980;5.850;2023-04-01T17:46:30;100017.41;;;11.28;91.75
51603;BME280;37954;51.980;5.850;2023-04-01T17:55:43;100021.66;;;11.24;92.08
51603;BME280;37954;51.980;5.850;2023-04-01T18:00:23;100020.75;;;11.02;91.86
51603;BME280;37954;51.980;5.850;2023-04-01T18:04:56;100042.63;;;10.94;91.62
51603;BME280;37954;51.980;5.850;2023-04-01T18:09:41;100071.31;;;10.88;91.21
51603;BME280;37954;51.980;5.850;2023-04-01T18:18:57;100074.44;;;10.68;90.93
51603;BME280;37954;51.980;5.850;2023-04-01T18:23:23;100105.41;;;10.59;90.99
51603;BME280;37954;51.980;5.850;2023-04-01T18:27:53;100095.28;;;10.50;91.26
51603;BME280;37954;51.980;5.850;2023-04-01T18:32:28;100105.31;;;10.54;91.72
51603;BME280;37954;51.980;5.850;2023-04-01T18:36:53;100147.66;;;10.64;92.23
51603;BME280;37954;51.980;5.850;2023-04-01T18:41:18;100139.66;;;10.40;91.91
51603;BME280;37954;51.980;5.850;2023-04-01T18:45:36;100150.66;;;10.39;92.19
51603;BME280;37954;51.980;5.850;2023-04-01T18:50:13;100148.31;;;10.31;92.27
51603;BME280;37954;51.980;5.850;2023-04-01T18:54:30;100165.94;;;10.27;91.92
51603;BME280;37954;51.980;5.850;2023-04-01T18:59:04;100196.06;;;10.29;91.79
51603;BME280;37954;51.980;5.850;2023-04-01T19:07:44;100187.28;;;9.98;91.52
51603;BME280;37954;51.980;5.850;2023-04-01T19:16:54;100241.66;;;10.17;91.73
51603;BME280;37954;51.980;5.850;2023-04-01T19:21:14;100255.31;;;10.16;91.78
51603;BME280;37954;51.980;5.850;2023-04-01T19:25:46;100243.63;;;9.98;92.12
51603;BME280;37954;51.980;5.850;2023-04-01T20:02:43;100316.88;;;9.39;91.96
51603;BME280;37954;51.980;5.850;2023-04-01T20:07:27;100334.50;;;9.35;91.88
51603;BME280;37954;51.980;5.850;2023-04-01T20:11:58;100333.16;;;9.26;91.84
51603;BME280;37954;51.980;5.850;2023-04-01T20:16:12;100337.25;;;9.10;92.19
51603;BME280;37954;51.980;5.850;2023-04-01T20:20:28;100344.25;;;9.11;91.87
51603;BME280;37954;51.980;5.850;2023-04-01T20:24:44;100366.41;;;9.18;92.59
51603;BME280;37954;51.980;5.850;2023-04-01T20:46:20;100429.97;;;9.11;92.30
51603;BME280;37954;51.980;5.850;2023-04-01T20:50:41;100439.94;;;9.04;92.09
51603;BME280;37954;51.980;5.850;2023-04-01T21:04:04;100444.28;;;8.80;91.41
51603;BME280;37954;51.980;5.850;2023-04-01T21:12:50;100470.38;;;8.85;91.34
51603;BME280;37954;51.980;5.850;2023-04-01T21:17:22;100478.88;;;8.82;91.25
51603;BME280;37954;51.980;5.850;2023-04-01T22:11:16;100607.13;;;8.58;90.03
51603;BME280;37954;51.980;5.850;2023-04-01T22:20:27;100616.28;;;8.44;89.66
51603;BME280;37954;51.980;5.850;2023-04-01T22:24:45;100631.72;;;8.35;89.30
51603;BME280;37954;51.980;5.850;2023-04-01T22:29:20;100645.09;;;8.35;89.60
51603;BME280;37954;51.980;5.850;2023-04-01T22:33:46;100641.81;;;8.27;89.09
51603;BME280;37954;51.980;5.850;2023-04-01T22:38:22;100656.44;;;8.24;89.33
51603;BME280;37954;51.980;5.850;2023-04-01T22:42:44;100665.50;;;8.17;89.22
51603;BME280;37954;51.980;5.850;2023-04-01T22:47:16;100665.94;;;8.00;89.31
51603;BME280;37954;51.980;5.850;2023-04-01T22:51:52;100675.66;;;7.95;89.34
51603;BME280;37954;51.980;5.850;2023-04-01T22:56:12;100682.22;;;7.92;89.35
51603;BME280;37954;51.980;5.850;2023-04-01T23:00:33;100691.28;;;7.91;89.25
51603;BME280;37954;51.980;5.850;2023-04-01T23:04:54;100701.16;;;7.91;89.43
51603;BME280;37954;51.980;5.850;2023-04-01T23:09:14;100696.19;;;7.81;89.59
51603;BME280;37954;51.980;5.850;2023-04-01T23:13:34;100705.69;;;7.77;89.48
51603;BME280;37954;51.980;5.850;2023-04-01T23:18:12;100717.19;;;7.84;89.83
51603;BME280;37954;51.980;5.850;2023-04-01T23:27:23;100725.03;;;7.79;89.50
51603;BME280;37954;51.980;5.850;2023-04-01T23:31:40;100732.44;;;7.77;89.61
51603;BME280;37954;51.980;5.850;2023-04-01T23:35:56;100741.06;;;7.79;89.75
51603;BME280;37954;51.980;5.850;2023-04-01T23:40:16;100754.19;;;7.81;89.82
51603;BME280;37954;51.980;5.850;2023-04-01T23:44:29;100751.53;;;7.74;89.71
51603;BME280;37954;51.980;5.850;2023-04-01T23:48:45;100756.47;;;7.71;89.96
51603;BME280;37954;51.980;5.850;2023-04-01T23:53:16;100778.84;;;7.63;89.60
51603;BME280;37954;51.980;5.850;2023-04-01T23:57:31;100780.06;;;7.47;89.26
